Latest Coastal Weather Observations for Ngayawili (Elcho Island)

IDD60701

Issued at 2:41 pm CST Sunday 25 June 2017 (issued every 10 minutes, with the page automatically refreshed every 10 minutes)

About coastal observations | Map of coastal stations | Coastal observations for NT | Marine services | Other Formats
Station Details ID: 014517 Name: NGAYAWILI Lat: -12.00 Lon: 135.57 Height: 8.1 m
Data from the previous 72 hours. | See also: Recent months at Ngayawili (Elcho Island)
Date/Time
CST
Temp
°C
Wind Pressure Rain since
9am
mm
Weather Cloud Vis
km
Sea
Height
m
Swell
Dir  Spd
kts
Gust
kts
hPa Trend Height
m
Period
s
Dir
25/02:30pm 29.0 ESE 7 12 1011.3 - 0.0 - - - - - - -
25/02:00pm 28.2 E 8 14 1011.5 - 0.0 - - - - - - -
25/01:30pm 28.5 E 9 14 1011.8 - 0.0 - - - - - - -
25/01:00pm 28.0 E 8 14 1012.2 - 0.0 - - - - - - -
25/12:30pm 28.1 E 8 14 1012.5 - 0.0 - - - - - - -
25/12:00pm 27.5 ESE 9 19 1013.1 - 0.0 - - - - - - -
25/11:30am 27.3 E 10 16 1013.3 - 0.0 - - - - - - -
25/11:00am 26.6 E 10 17 1013.6 - 0.0 - - - - - - -
25/10:30am 26.9 E 9 15 1013.7 - 0.0 - - - - - - -
25/10:00am 26.0 ESE 8 13 1013.7 - 0.0 - - - - - - -
25/09:30am 24.9 SE 6 12 1013.7 - 0.0 - - - - - - -
25/09:00am 24.2 SE 5 8 1013.7 - 0.0 - - - - - - -
25/08:30am 22.6 SE 2 6 1013.6 - 0.0 - - - - - - -
25/08:00am 20.8 CALM 0 0 1013.3 - 0.0 - - - - - - -
25/07:30am 18.5 CALM 0 0 1012.8 - 0.0 - - - - - - -
25/07:00am 18.3 CALM 0 0 1012.4 - 0.0 - - - - - - -
25/06:30am 18.8 CALM 0 0 1012.2 - 0.0 - - - - - - -
25/06:00am 18.6 CALM 0 0 1012.0 - 0.0 - - - - - - -
25/05:30am 18.0 CALM 0 0 1011.8 - 0.0 - - - - - - -
25/05:00am 19.2 CALM 0 0 1011.9 - 0.0 - - - - - - -
25/04:30am 19.3 CALM 0 0 1012.1 - 0.0 - - - - - - -
25/04:00am 20.1 CALM 0 0 1012.1 - 0.0 - - - - - - -
25/03:30am 20.5 SSE 4 5 1012.1 - 0.0 - - - - - - -
25/03:00am 20.7 SSE 5 7 1012.2 - 0.0 - - - - - - -
25/02:30am 20.9 SSE 5 7 1012.3 - 0.0 - - - - - - -
25/02:00am 21.0 SSE 5 7 1012.6 - 0.0 - - - - - - -
25/01:30am 21.0 SSE 3 5 1012.8 - 0.0 - - - - - - -
25/01:00am 21.2 CALM 0 0 1013.0 - 0.0 - - - - - - -
25/12:30am 22.2 CALM 0 0 1013.1 - 0.0 - - - - - - -
25/12:00am 22.7 ESE 4 7 1013.0 - 0.0 - - - - - - -
 
Date/Time
CST
Temp
°C
Wind Pressure Rain since
9am
mm
Weather Cloud Vis
km
Sea
Height
m
Swell
Dir  Spd
kts
Gust
kts
hPa Trend Height
m
Period
s
Dir
24/11:30pm 22.8 ESE 5 7 1012.8 - 0.0 - - - - - - -
24/11:00pm 23.2 ESE 6 9 1012.9 - 0.0 - - - - - - -
24/10:30pm 23.4 SE 6 9 1012.9 - 0.0 - - - - - - -
24/10:00pm 23.6 SE 5 8 1012.8 - 0.0 - - - - - - -
24/09:30pm 24.0 ESE 6 10 1012.4 - 0.0 - - - - - - -
24/09:00pm 24.3 ESE 7 12 1012.1 - 0.0 - - - - - - -
24/08:30pm 24.7 ESE 7 11 1011.8 - 0.0 - - - - - - -
24/08:00pm 24.9 ESE 7 14 1011.4 - 0.0 - - - - - - -
24/07:30pm 25.3 ESE 7 12 1011.1 - 0.0 - - - - - - -
24/07:00pm 25.5 ESE 5 11 1010.9 - 0.0 - - - - - - -
24/06:30pm 25.8 E 5 8 1010.7 - 0.0 - - - - - - -
24/06:00pm 26.6 E 6 9 1010.5 - 0.0 - - - - - - -
24/05:30pm 27.5 ESE 6 12 1010.2 - 0.0 - - - - - - -
24/05:00pm 28.4 E 6 11 1010.0 - 0.0 - - - - - - -
24/04:30pm 28.7 E 7 11 1009.8 - 0.0 - - - - - - -
24/04:00pm 29.5 ESE 6 10 1009.9 - 0.0 - - - - - - -
24/03:30pm 29.4 ESE 8 12 1009.8 - 0.0 - - - - - - -
24/03:00pm 29.6 E 7 11 1010.1 - 0.0 - - - - - - -
24/02:30pm 29.6 E 7 14 1010.4 - 0.0 - - - - - - -
24/02:00pm 29.3 ESE 9 17 1010.9 - 0.0 - - - - - - -
24/01:30pm 29.0 ESE 9 13 1011.4 - 0.0 - - - - - - -
24/01:00pm 28.9 ESE 9 17 1011.8 - 0.0 - - - - - - -
24/12:30pm 28.4 ESE 9 14 1012.3 - 0.0 - - - - - - -
24/12:00pm 27.7 SE 11 17 1012.8 - 0.0 - - - - - - -
24/11:30am 27.2 ESE 10 18 1013.1 - 0.0 - - - - - - -
24/11:00am 27.0 ESE 10 16 1013.3 - 0.0 - - - - - - -
24/10:30am 26.5 SE 9 14 1013.5 - 0.0 - - - - - - -
24/10:00am 25.9 ESE 8 13 1013.7 - 0.0 - - - - - - -
24/09:30am 25.3 SE 7 11 1013.9 - 0.0 - - - - - - -
24/09:00am 23.5 SE 4 6 1013.9 - 0.0 - - - - - - -
24/08:30am 21.7 SSE 2 6 1013.6 - 0.0 - - - - - - -
24/08:00am 20.2 CALM 0 0 1013.3 - 0.0 - - - - - - -
24/07:30am 18.8 CALM 0 0 1012.8 - 0.0 - - - - - - -
24/07:00am 18.1 CALM 0 0 1012.6 - 0.0 - - - - - - -
24/06:30am 17.9 CALM 0 0 1012.4 - 0.0 - - - - - - -
24/06:00am 18.6 CALM 0 0 1012.3 - 0.0 - - - - - - -
24/05:30am 19.2 CALM 0 0 1012.1 - 0.0 - - - - - - -
24/05:00am 19.1 CALM 0 0 1012.0 - 0.0 - - - - - - -
24/04:30am 19.5 CALM 0 0 1011.9 - 0.0 - - - - - - -
24/04:00am 20.4 CALM 0 0 1012.1 - 0.0 - - - - - - -
24/03:30am 20.5 CALM 0 0 1012.2 - 0.0 - - - - - - -
24/03:00am 21.3 SSE 1 4 1012.5 - 0.0 - - - - - - -
24/02:30am 21.5 CALM 0 1 1012.7 - 0.0 - - - - - - -
24/02:00am 22.1 SE 4 6 1012.8 - 0.0 - - - - - - -
24/01:30am 22.2 SE 5 7 1012.9 - 0.0 - - - - - - -
24/01:00am 22.4 SE 4 6 1013.2 - 0.0 - - - - - - -
24/12:30am 22.7 SE 5 7 1013.1 - 0.0 - - - - - - -
24/12:00am 22.9 SE 4 8 1013.3 - 0.0 - - - - - - -
 
Date/Time
CST
Temp
°C
Wind Pressure Rain since
9am
mm
Weather Cloud Vis
km
Sea
Height
m
Swell
Dir  Spd
kts
Gust
kts
hPa Trend Height
m
Period
s
Dir
23/11:30pm 23.2 SE 4 7 1013.3 - 0.0 - - - - - - -
23/11:00pm 23.6 ESE 5 8 1013.7 - 0.0 - - - - - - -
23/10:30pm 23.9 SE 5 9 1013.6 - 0.0 - - - - - - -
23/10:00pm 24.0 ESE 3 7 1013.6 - 0.0 - - - - - - -
23/09:30pm 24.5 ESE 6 11 1013.5 - 0.0 - - - - - - -
23/09:00pm 25.0 ESE 10 18 1013.4 - 0.0 - - - - - - -
23/08:30pm 25.3 ESE 8 13 1013.1 - 0.0 - - - - - - -
23/08:00pm 25.5 ESE 6 10 1012.8 - 0.0 - - - - - - -
23/07:30pm 25.0 E 3 6 1012.5 - 0.0 - - - - - - -
23/07:00pm 25.2 ENE 4 6 1012.1 - 0.0 - - - - - - -
23/06:30pm 25.9 ENE 3 6 1011.7 - 0.0 - - - - - - -
23/06:00pm 26.9 E 5 10 1011.6 - 0.0 - - - - - - -
23/05:30pm 27.9 ESE 5 9 1011.3 - 0.0 - - - - - - -
23/05:00pm 28.5 E 7 12 1011.1 - 0.0 - - - - - - -
23/04:30pm 28.9 E 10 15 1010.9 - 0.0 - - - - - - -
23/04:00pm 29.0 E 7 13 1010.9 - 0.0 - - - - - - -
23/03:30pm 29.5 E 8 14 1010.9 - 0.0 - - - - - - -
23/03:00pm 29.4 E 7 12 1011.2 - 0.0 - - - - - - -
23/02:30pm 29.5 ESE 9 15 1011.5 - 0.0 - - - - - - -
23/02:00pm 29.4 SE 10 17 1011.9 - 0.0 - - - - - - -
23/01:30pm 29.3 ESE 10 16 1012.1 - 0.0 - - - - - - -
23/01:00pm 28.9 ESE 10 16 1012.6 - 0.0 - - - - - - -
23/12:30pm 28.4 ESE 11 19 1013.0 - 0.0 - - - - - - -
23/12:00pm 27.9 ESE 11 17 1013.5 - 0.0 - - - - - - -
23/11:30am 27.8 ESE 11 18 1013.8 - 0.0 - - - - - - -
23/11:00am 27.8 ESE 10 17 1014.0 - 0.0 - - - - - - -
23/10:30am 27.1 SE 9 15 1014.4 - 0.0 - - - - - - -
23/10:00am 26.7 ESE 9 14 1014.6 - 0.0 - - - - - - -
23/09:30am 25.7 SE 10 16 1014.6 - 0.0 - - - - - - -
23/09:00am 24.7 SE 9 14 1014.6 - 0.0 - - - - - - -
23/08:30am 23.9 SE 7 12 1014.5 - 0.0 - - - - - - -
23/08:00am 23.1 SE 9 13 1014.4 - 0.0 - - - - - - -
23/07:30am 22.5 SSE 5 9 1014.2 - 0.0 - - - - - - -
23/07:00am 22.1 SSE 5 8 1013.9 - 0.0 - - - - - - -
23/06:30am 21.9 SSE 5 7 1013.8 - 0.0 - - - - - - -
23/06:00am 21.7 CALM 0 0 1013.7 - 0.0 - - - - - - -
23/05:30am 21.7 SE 4 6 1013.6 - 0.0 - - - - - - -
23/05:00am 21.7 SSE 4 7 1013.4 - 0.0 - - - - - - -
23/04:30am 21.9 SSE 5 7 1013.5 - 0.0 - - - - - - -
23/04:00am 21.7 CALM 0 0 1013.6 - 0.0 - - - - - - -
23/03:30am 22.0 S 1 4 1013.6 - 0.0 - - - - - - -
23/03:00am 22.5 S 1 5 1013.7 - 0.0 - - - - - - -
23/02:30am 22.9 SSE 5 9 1013.8 - 0.0 - - - - - - -
23/02:00am 23.1 SE 5 7 1014.0 - 0.0 - - - - - - -
23/01:30am 23.3 SE 6 9 1014.3 - 0.0 - - - - - - -
23/01:00am 23.5 SE 5 8 1014.6 - 0.0 - - - - - - -
23/12:30am 23.7 SE 7 10 1014.7 - 0.0 - - - - - - -
23/12:00am 23.9 SE 7 10 1014.8 - 0.0 - - - - - - -
 
Date/Time
CST
Temp
°C
Wind Pressure Rain since
9am
mm
Weather Cloud Vis
km
Sea
Height
m
Swell
Dir  Spd
kts
Gust
kts
hPa Trend Height
m
Period
s
Dir
22/11:30pm 24.2 SE 6 10 1015.1 - 0.0 - - - - - - -
22/11:00pm 24.7 SE 7 11 1015.2 - 0.0 - - - - - - -
22/10:30pm 25.0 SE 8 15 1015.5 - 0.0 - - - - - - -
22/10:00pm 25.0 ESE 6 14 1015.6 - 0.0 - - - - - - -
22/09:30pm 25.1 ESE 7 11 1015.4 - 0.0 - - - - - - -
22/09:00pm 25.4 ESE 8 16 1015.3 - 0.0 - - - - - - -
22/08:30pm 25.7 ESE 7 11 1015.0 - 0.0 - - - - - - -
22/08:00pm 25.9 ESE 8 13 1014.5 - 0.0 - - - - - - -
22/07:30pm 26.0 ESE 7 11 1013.9 - 0.0 - - - - - - -
22/07:00pm 26.2 ESE 7 12 1013.4 - 0.0 - - - - - - -
22/06:30pm 26.6 E 7 13 1013.0 - 0.0 - - - - - - -
22/06:00pm 27.2 E 6 11 1012.5 - 0.0 - - - - - - -
22/05:30pm 27.3 E 6 11 1012.3 - 0.0 - - - - - - -
22/05:00pm 28.1 E 9 12 1012.0 - 0.0 - - - - - - -
22/04:30pm 28.7 E 4 8 1011.6 - 0.0 - - - - - - -
22/04:00pm 28.8 E 7 11 1011.5 - 0.0 - - - - - - -
22/03:30pm 29.4 E 8 14 1011.4 - 0.0 - - - - - - -
22/03:00pm 28.8 E 9 15 1011.6 - 0.0 - - - - - - -

Other Formats:

Comma delimited format used in spreadsheet applications
http://www.bom.gov.au/fwo/IDD60701/IDD60701.95146.axf

JavaScript Object Notation format (JSON) in row-major order
http://www.bom.gov.au/fwo/IDD60701/IDD60701.95146.json